Time;durP1;ratioP1;P1;durP2;ratioP2;P2;SDS_P1;SDS_P2;PMS_P1;PMS_P2;Temp;Humidity;BMP_temperature;BMP_pressure;BME280_temperature;BME280_humidity;BME280_pressure;Samples;Min_cycle;Max_cycle;Signal;HPM_P1;HPM_P2
2021/06/19 00:01:20;;;;;;;7.13;4.30;;;;;;;;;;5100252;28;20485;-83
2021/06/19 00:03:48;;;;;;;6.70;4.30;;;;;;;;;;5099346;27;20450;-83
2021/06/19 00:06:15;;;;;;;4.90;4.20;;;;;;;;;;5108131;28;20478;-84
2021/06/19 00:08:43;;;;;;;5.57;4.60;;;;;;;;;;5107452;28;21190;-83
2021/06/19 00:11:10;;;;;;;5.97;3.50;;;;;;;;;;5109710;28;20435;-84
2021/06/19 00:13:37;;;;;;;7.97;4.70;;;;;;;;;;5104862;28;20485;-84
2021/06/19 00:16:05;;;;;;;6.23;3.70;;;;;;;;;;5098575;27;23074;-83
2021/06/19 00:18:32;;;;;;;6.47;4.23;;;;;;;;;;5106413;27;20508;-82
2021/06/19 00:21:00;;;;;;;6.67;3.90;;;;;;;;;;5105148;28;20457;-82
2021/06/19 00:23:27;;;;;;;5.00;4.00;;;;;;;;;;5100128;28;20438;-82
2021/06/19 00:25:55;;;;;;;4.83;3.30;;;;;;;;;;5109940;28;20450;-82
2021/06/19 00:28:23;;;;;;;4.37;3.63;;;;;;;;;;5104978;27;20486;-82
2021/06/19 00:30:50;;;;;;;4.17;3.53;;;;;;;;;;5111660;28;20942;-84
2021/06/19 00:33:17;;;;;;;5.87;3.77;;;;;;;;;;5110187;28;20444;-82
2021/06/19 00:35:45;;;;;;;5.83;3.60;;;;;;;;;;5099249;27;20475;-83
2021/06/19 00:38:12;;;;;;;8.20;4.57;;;;;;;;;;5108843;28;20427;-82
2021/06/19 00:40:39;;;;;;;4.53;3.00;;;;;;;;;;5110178;28;20957;-83
2021/06/19 00:43:08;;;;;;;6.90;3.97;;;;;;;;;;5100774;28;20454;-84
2021/06/19 00:45:37;;;;;;;5.80;3.50;;;;;;;;;;5110050;28;20466;-84
2021/06/19 00:48:07;;;;;;;4.30;3.60;;;;;;;;;;5111446;28;20443;-82
2021/06/19 00:50:35;;;;;;;4.30;3.63;;;;;;;;;;5104292;28;20450;-82
2021/06/19 00:53:02;;;;;;;3.83;3.53;;;;;;;;;;5097163;28;20918;-82
2021/06/19 00:55:29;;;;;;;7.83;3.80;;;;;;;;;;5110140;28;20576;-83
2021/06/19 00:57:58;;;;;;;6.90;4.60;;;;;;;;;;5103280;28;20459;-82
2021/06/19 01:00:26;;;;;;;4.20;3.10;;;;;;;;;;5111265;28;20523;-82
2021/06/19 01:02:55;;;;;;;4.27;3.20;;;;;;;;;;5110006;28;20802;-82
2021/06/19 01:05:24;;;;;;;3.53;3.13;;;;;;;;;;5101013;28;20879;-83
2021/06/19 01:07:51;;;;;;;5.70;2.90;;;;;;;;;;5106490;28;21252;-82
2021/06/19 01:10:19;;;;;;;4.07;2.83;;;;;;;;;;5109510;28;20447;-82
2021/06/19 01:12:47;;;;;;;5.77;3.17;;;;;;;;;;5110183;28;20915;-83
2021/06/19 01:15:15;;;;;;;3.70;3.07;;;;;;;;;;5100898;27;22777;-83
2021/06/19 01:17:44;;;;;;;3.80;3.40;;;;;;;;;;5111181;28;20938;-82
2021/06/19 01:20:12;;;;;;;7.50;3.50;;;;;;;;;;5097458;28;21145;-79
2021/06/19 01:22:40;;;;;;;4.17;3.27;;;;;;;;;;5105607;28;20465;-83
2021/06/19 01:25:10;;;;;;;4.00;2.93;;;;;;;;;;5102724;27;20470;-81
2021/06/19 01:27:38;;;;;;;5.20;3.37;;;;;;;;;;5110711;28;20442;-82
2021/06/19 01:30:08;;;;;;;4.13;3.50;;;;;;;;;;5107808;28;20821;-82
2021/06/19 01:32:37;;;;;;;4.30;3.43;;;;;;;;;;5090707;28;20439;-82
2021/06/19 01:35:05;;;;;;;3.20;2.90;;;;;;;;;;5110723;28;20489;-82
2021/06/19 01:37:32;;;;;;;4.83;3.23;;;;;;;;;;5097092;28;20454;-82
2021/06/19 01:40:07;;;;;;;3.57;2.90;;;;;;;;;;5109703;28;20427;-82
2021/06/19 01:42:36;;;;;;;6.30;3.00;;;;;;;;;;5109327;28;20450;-84
2021/06/19 01:45:03;;;;;;;4.10;2.73;;;;;;;;;;5098742;28;20489;-83
2021/06/19 01:47:30;;;;;;;4.10;3.10;;;;;;;;;;5111190;28;20439;-83
2021/06/19 01:49:57;;;;;;;4.77;2.90;;;;;;;;;;5109652;28;20458;-82
2021/06/19 01:52:24;;;;;;;4.87;3.30;;;;;;;;;;5112926;28;20450;-83
2021/06/19 01:54:51;;;;;;;4.43;2.90;;;;;;;;;;5110872;28;20481;-83
2021/06/19 01:57:20;;;;;;;5.67;3.00;;;;;;;;;;5109624;28;20943;-83
2021/06/19 01:59:48;;;;;;;4.80;3.50;;;;;;;;;;5104967;28;20450;-82
2021/06/19 02:02:15;;;;;;;3.20;2.90;;;;;;;;;;5097464;27;20454;-83
2021/06/19 02:04:42;;;;;;;4.20;3.20;;;;;;;;;;5110231;28;20784;-82
2021/06/19 02:07:10;;;;;;;3.40;3.10;;;;;;;;;;5110001;28;20437;-82
2021/06/19 02:09:37;;;;;;;3.17;2.73;;;;;;;;;;5105304;28;20516;-82
2021/06/19 02:12:04;;;;;;;3.97;2.97;;;;;;;;;;5109308;28;20438;-82
2021/06/19 02:14:31;;;;;;;3.80;3.03;;;;;;;;;;5100016;28;20477;-82
2021/06/19 02:17:00;;;;;;;3.90;3.13;;;;;;;;;;5103344;28;20494;-83
2021/06/19 02:19:27;;;;;;;3.00;2.70;;;;;;;;;;5107561;28;20451;-82
2021/06/19 02:21:54;;;;;;;3.20;2.90;;;;;;;;;;5105692;28;20454;-82
2021/06/19 02:24:21;;;;;;;3.40;3.03;;;;;;;;;;5102552;28;20451;-82
2021/06/19 02:26:48;;;;;;;4.13;3.37;;;;;;;;;;5110438;28;20478;-82
2021/06/19 02:29:16;;;;;;;5.90;3.40;;;;;;;;;;5097939;28;21643;-83
2021/06/19 02:31:43;;;;;;;4.40;3.40;;;;;;;;;;5109012;28;20931;-83
2021/06/19 02:34:11;;;;;;;8.63;4.80;;;;;;;;;;5109145;28;20489;-82
2021/06/19 02:36:38;;;;;;;4.63;3.90;;;;;;;;;;5099208;28;20499;-82
2021/06/19 02:39:06;;;;;;;4.10;3.20;;;;;;;;;;5097602;27;20943;-83
2021/06/19 02:41:33;;;;;;;5.90;3.83;;;;;;;;;;5110149;28;20950;-83
2021/06/19 02:44:00;;;;;;;3.83;3.43;;;;;;;;;;5109869;28;20442;-82
2021/06/19 02:46:27;;;;;;;4.43;3.70;;;;;;;;;;5101708;28;20471;-81
2021/06/19 02:48:54;;;;;;;3.83;3.53;;;;;;;;;;5111877;28;20434;-83
2021/06/19 02:51:23;;;;;;;4.43;3.80;;;;;;;;;;5110042;28;20953;-81
2021/06/19 02:53:50;;;;;;;5.57;4.07;;;;;;;;;;5101239;28;20465;-82
2021/06/19 02:56:17;;;;;;;5.70;3.37;;;;;;;;;;5107476;28;20525;-82
2021/06/19 02:58:44;;;;;;;3.53;3.20;;;;;;;;;;5106815;28;20981;-82
2021/06/19 03:01:11;;;;;;;3.87;3.47;;;;;;;;;;5105204;28;20806;-82
2021/06/19 03:03:38;;;;;;;4.47;3.60;;;;;;;;;;5109735;28;20939;-83
2021/06/19 03:06:06;;;;;;;6.87;3.53;;;;;;;;;;5105080;28;20470;-83
2021/06/19 03:08:34;;;;;;;4.30;3.90;;;;;;;;;;5109942;28;20458;-82
2021/06/19 03:11:01;;;;;;;4.83;3.73;;;;;;;;;;5111918;28;20438;-83
2021/06/19 03:13:28;;;;;;;4.27;3.87;;;;;;;;;;5103031;28;20451;-82
2021/06/19 03:15:56;;;;;;;3.77;3.47;;;;;;;;;;5102128;28;20489;-82
2021/06/19 03:18:23;;;;;;;5.93;3.87;;;;;;;;;;5107215;28;20437;-82
2021/06/19 03:20:50;;;;;;;5.77;3.70;;;;;;;;;;5107896;28;20450;-83
2021/06/19 03:23:17;;;;;;;4.00;3.60;;;;;;;;;;5107894;28;20446;-82
2021/06/19 03:25:46;;;;;;;8.10;4.13;;;;;;;;;;5098555;28;20969;-83
2021/06/19 03:28:14;;;;;;;5.20;3.80;;;;;;;;;;5109109;28;20450;-82
2021/06/19 03:30:42;;;;;;;6.77;3.90;;;;;;;;;;5098688;28;20921;-83
2021/06/19 03:33:09;;;;;;;5.07;3.43;;;;;;;;;;5105070;28;20451;-81
2021/06/19 03:35:36;;;;;;;3.97;3.57;;;;;;;;;;5113952;28;20501;-81
2021/06/19 03:38:05;;;;;;;4.20;3.77;;;;;;;;;;5097339;28;21845;-83
2021/06/19 03:40:33;;;;;;;5.33;3.80;;;;;;;;;;5099574;28;20450;-82
2021/06/19 03:43:01;;;;;;;4.80;4.10;;;;;;;;;;5111962;28;20434;-82
2021/06/19 03:45:29;;;;;;;4.23;3.30;;;;;;;;;;5110566;28;20465;-83
2021/06/19 03:47:56;;;;;;;5.73;3.63;;;;;;;;;;5112144;28;20446;-83
2021/06/19 03:50:24;;;;;;;3.47;3.13;;;;;;;;;;5113209;28;20950;-82
2021/06/19 03:52:52;;;;;;;4.80;3.10;;;;;;;;;;5100677;28;20821;-82
2021/06/19 03:55:19;;;;;;;4.97;3.83;;;;;;;;;;5098743;27;20896;-82
2021/06/19 03:57:46;;;;;;;3.80;3.40;;;;;;;;;;5109852;28;20533;-82
2021/06/19 04:00:16;;;;;;;6.30;3.77;;;;;;;;;;5113145;28;20435;-82
2021/06/19 04:02:44;;;;;;;4.70;3.10;;;;;;;;;;5105697;28;20538;-83
2021/06/19 04:05:12;;;;;;;3.67;3.30;;;;;;;;;;5101224;27;20866;-82
2021/06/19 04:07:39;;;;;;;3.87;3.50;;;;;;;;;;5113725;28;20553;-82
2021/06/19 04:10:07;;;;;;;4.47;2.90;;;;;;;;;;5114128;28;20439;-82
2021/06/19 04:12:35;;;;;;;3.50;3.20;;;;;;;;;;5091302;28;20457;-82
2021/06/19 04:15:02;;;;;;;3.70;3.30;;;;;;;;;;5108283;28;21096;-82
2021/06/19 04:17:31;;;;;;;4.07;3.00;;;;;;;;;;5112998;28;20494;-83
2021/06/19 04:19:58;;;;;;;4.97;3.37;;;;;;;;;;5104826;27;20851;-82
2021/06/19 04:22:25;;;;;;;5.27;3.13;;;;;;;;;;5111898;28;20442;-82
2021/06/19 04:24:52;;;;;;;3.13;2.87;;;;;;;;;;5105037;28;20455;-81
2021/06/19 04:27:20;;;;;;;4.33;2.60;;;;;;;;;;5101688;27;20453;-82
2021/06/19 04:29:47;;;;;;;3.63;2.70;;;;;;;;;;5104998;28;20461;-82
2021/06/19 04:32:15;;;;;;;2.77;2.47;;;;;;;;;;5106716;28;20465;-82
2021/06/19 04:34:43;;;;;;;2.60;2.30;;;;;;;;;;5108674;28;20438;-83
2021/06/19 04:37:11;;;;;;;3.50;2.30;;;;;;;;;;5109580;28;20441;-83
2021/06/19 04:39:42;;;;;;;2.90;2.10;;;;;;;;;;5104377;28;20789;-83
2021/06/19 04:42:13;;;;;;;2.53;2.33;;;;;;;;;;5111432;28;20474;-82
2021/06/19 04:45:00;;;;;;;2.30;2.10;;;;;;;;;;5109278;28;20450;-82
2021/06/19 04:47:28;;;;;;;2.60;2.40;;;;;;;;;;5106021;28;20454;-83
2021/06/19 04:49:56;;;;;;;2.27;2.10;;;;;;;;;;5108111;28;20441;-82
2021/06/19 04:52:24;;;;;;;2.67;2.47;;;;;;;;;;5106030;28;20547;-82
2021/06/19 04:54:52;;;;;;;2.37;2.17;;;;;;;;;;5108963;28;20526;-84
2021/06/19 04:57:19;;;;;;;3.70;2.30;;;;;;;;;;5104607;27;20447;-82
2021/06/19 04:59:46;;;;;;;2.43;2.23;;;;;;;;;;5101210;27;20791;-83
2021/06/19 05:02:13;;;;;;;2.33;1.70;;;;;;;;;;5107929;28;20434;-82
2021/06/19 05:04:41;;;;;;;2.33;1.50;;;;;;;;;;5107883;28;20783;-81
2021/06/19 05:07:09;;;;;;;2.10;1.90;;;;;;;;;;5105268;28;20537;-82
2021/06/19 05:09:36;;;;;;;2.70;1.90;;;;;;;;;;5111229;28;20445;-82
2021/06/19 05:12:04;;;;;;;1.97;1.80;;;;;;;;;;5102306;28;20454;-82
2021/06/19 05:14:31;;;;;;;2.10;1.63;;;;;;;;;;5100357;27;20459;-82
2021/06/19 05:16:58;;;;;;;2.97;2.10;;;;;;;;;;5109664;28;20556;-82
2021/06/19 05:19:25;;;;;;;4.03;2.30;;;;;;;;;;5113674;28;20435;-82
2021/06/19 05:21:52;;;;;;;2.70;2.13;;;;;;;;;;5105915;28;20806;-82
2021/06/19 05:24:21;;;;;;;2.40;2.20;;;;;;;;;;5096894;28;20821;-83
2021/06/19 05:26:48;;;;;;;2.60;2.37;;;;;;;;;;5092500;28;20459;-82
2021/06/19 05:29:15;;;;;;;2.83;2.37;;;;;;;;;;5099474;28;20458;-82
2021/06/19 05:31:43;;;;;;;2.30;2.10;;;;;;;;;;5103030;28;20580;-82
2021/06/19 05:34:10;;;;;;;2.03;1.83;;;;;;;;;;5105356;28;20450;-82
2021/06/19 05:36:37;;;;;;;2.70;2.20;;;;;;;;;;5110271;28;20497;-83
2021/06/19 05:39:04;;;;;;;2.90;2.23;;;;;;;;;;5108067;28;20788;-82
2021/06/19 05:41:33;;;;;;;2.73;1.90;;;;;;;;;;5099929;27;20826;-83
2021/06/19 05:44:00;;;;;;;3.67;2.40;;;;;;;;;;5101238;27;20516;-82
2021/06/19 05:46:27;;;;;;;2.90;2.57;;;;;;;;;;5106815;28;20454;-81
2021/06/19 05:48:57;;;;;;;2.23;1.97;;;;;;;;;;5108256;28;20426;-82
2021/06/19 05:51:24;;;;;;;2.13;1.93;;;;;;;;;;5098605;27;20481;-82
2021/06/19 05:53:51;;;;;;;3.13;2.40;;;;;;;;;;5108082;28;20958;-81
2021/06/19 05:56:19;;;;;;;2.23;1.97;;;;;;;;;;5110429;28;20493;-80
2021/06/19 05:58:47;;;;;;;3.00;1.90;;;;;;;;;;5102407;28;20459;-79
2021/06/19 06:01:14;;;;;;;1.90;1.80;;;;;;;;;;5094975;28;20450;-80
2021/06/19 06:03:42;;;;;;;2.20;2.00;;;;;;;;;;5107420;28;20435;-81
2021/06/19 06:06:09;;;;;;;2.67;1.77;;;;;;;;;;5102559;28;20539;-80
2021/06/19 06:08:36;;;;;;;1.70;1.60;;;;;;;;;;5109951;28;20499;-80
2021/06/19 06:11:03;;;;;;;1.70;1.60;;;;;;;;;;5109236;28;20437;-82
2021/06/19 06:13:30;;;;;;;3.90;1.80;;;;;;;;;;5099520;28;20454;-81
2021/06/19 06:15:59;;;;;;;2.13;1.40;;;;;;;;;;5091584;28;20487;-80
2021/06/19 06:18:26;;;;;;;2.60;1.57;;;;;;;;;;5095667;28;20441;-81
2021/06/19 06:20:54;;;;;;;1.40;1.30;;;;;;;;;;5096141;28;20452;-81
2021/06/19 06:23:23;;;;;;;1.80;1.40;;;;;;;;;;5106733;28;20574;-82
2021/06/19 06:25:50;;;;;;;1.97;1.40;;;;;;;;;;5109714;28;20465;-80
2021/06/19 06:28:18;;;;;;;1.50;1.40;;;;;;;;;;5101689;27;20450;-80
2021/06/19 06:30:45;;;;;;;1.50;1.40;;;;;;;;;;5099402;28;20463;-81
2021/06/19 06:33:13;;;;;;;1.60;1.40;;;;;;;;;;5103828;28;20456;-81
2021/06/19 06:35:40;;;;;;;2.10;1.40;;;;;;;;;;5091441;28;20498;-81
2021/06/19 06:38:08;;;;;;;1.40;1.30;;;;;;;;;;5103348;28;20540;-80
2021/06/19 06:40:35;;;;;;;1.53;1.43;;;;;;;;;;5110333;28;20838;-81
2021/06/19 06:43:02;;;;;;;2.33;1.60;;;;;;;;;;5095426;28;20459;-82
2021/06/19 06:45:29;;;;;;;2.03;1.57;;;;;;;;;;5095167;28;20462;-85
2021/06/19 06:47:57;;;;;;;2.27;1.40;;;;;;;;;;5109395;28;20439;-82
2021/06/19 06:50:26;;;;;;;2.17;1.20;;;;;;;;;;5107525;28;20511;-85
2021/06/19 06:52:53;;;;;;;1.90;1.40;;;;;;;;;;5109733;28;20492;-84
2021/06/19 06:55:21;;;;;;;2.23;1.40;;;;;;;;;;5105650;28;20478;-82
2021/06/19 06:57:48;;;;;;;1.73;1.63;;;;;;;;;;5111356;28;20814;-85
2021/06/19 07:00:15;;;;;;;4.60;1.40;;;;;;;;;;5095701;28;20461;-87
2021/06/19 07:02:42;;;;;;;1.37;1.27;;;;;;;;;;5103108;28;20454;-85
2021/06/19 07:05:10;;;;;;;1.40;1.20;;;;;;;;;;5105860;28;20458;-88
2021/06/19 07:07:39;;;;;;;1.33;1.23;;;;;;;;;;5099597;28;20729;-86
2021/06/19 07:10:07;;;;;;;3.30;1.30;;;;;;;;;;5111366;28;20445;-85
2021/06/19 07:12:35;;;;;;;1.33;1.00;;;;;;;;;;5113883;28;20437;-84
2021/06/19 07:15:02;;;;;;;1.40;1.30;;;;;;;;;;5103725;28;20461;-85
2021/06/19 07:17:29;;;;;;;2.70;1.40;;;;;;;;;;5101514;27;20505;-85
2021/06/19 07:19:57;;;;;;;1.90;1.20;;;;;;;;;;5108631;28;20944;-86
2021/06/19 07:22:24;;;;;;;1.30;1.07;;;;;;;;;;5110444;28;21753;-87
2021/06/19 07:24:52;;;;;;;2.53;1.37;;;;;;;;;;5111352;28;20460;-87
2021/06/19 07:27:19;;;;;;;2.87;1.40;;;;;;;;;;5113466;28;20456;-86
2021/06/19 07:29:46;;;;;;;1.40;1.13;;;;;;;;;;5111217;28;21227;-83
2021/06/19 07:32:14;;;;;;;1.37;1.20;;;;;;;;;;5105562;28;20453;-85
2021/06/19 07:34:41;;;;;;;3.13;1.20;;;;;;;;;;5110539;28;20442;-89
2021/06/19 07:37:08;;;;;;;1.27;1.17;;;;;;;;;;5108980;28;20476;-85
2021/06/19 07:39:35;;;;;;;3.00;1.20;;;;;;;;;;5101183;27;20921;-86
2021/06/19 07:42:04;;;;;;;1.37;1.20;;;;;;;;;;5092196;28;20192;-87
2021/06/19 07:44:31;;;;;;;3.30;1.10;;;;;;;;;;5107400;28;20184;-83
2021/06/19 07:46:59;;;;;;;1.53;1.03;;;;;;;;;;5112185;28;20289;-83
2021/06/19 07:49:26;;;;;;;1.20;1.10;;;;;;;;;;5107394;28;20188;-84
2021/06/19 07:51:54;;;;;;;1.80;1.10;;;;;;;;;;5110997;28;20202;-83
2021/06/19 07:54:21;;;;;;;4.40;1.20;;;;;;;;;;5110305;28;20211;-85
2021/06/19 07:56:48;;;;;;;1.47;1.07;;;;;;;;;;5112440;28;20226;-86
2021/06/19 07:59:17;;;;;;;2.90;1.17;;;;;;;;;;5112095;28;20656;-85
2021/06/19 08:01:44;;;;;;;1.30;1.20;;;;;;;;;;5099090;28;20200;-88
2021/06/19 08:04:11;;;;;;;1.10;1.00;;;;;;;;;;5102136;28;20200;-88
2021/06/19 08:06:38;;;;;;;1.70;1.10;;;;;;;;;;5111983;28;20208;-84
2021/06/19 08:09:06;;;;;;;1.53;1.20;;;;;;;;;;5104634;28;20200;-84
2021/06/19 08:11:33;;;;;;;1.30;1.13;;;;;;;;;;5106724;28;20286;-87
2021/06/19 08:14:00;;;;;;;1.20;1.05;;;;;;;;;;5112827;28;20196;-88
2021/06/19 08:16:28;;;;;;;1.60;1.20;;;;;;;;;;5108013;28;20234;-86
2021/06/19 08:18:56;;;;;;;2.00;1.20;;;;;;;;;;5109564;28;20194;-85
2021/06/19 08:21:23;;;;;;;3.70;1.10;;;;;;;;;;5111796;28;20214;-87
2021/06/19 08:23:50;;;;;;;3.80;1.60;;;;;;;;;;5110068;28;20196;-88
2021/06/19 08:26:17;;;;;;;1.67;1.10;;;;;;;;;;5112057;28;20216;-86
2021/06/19 08:28:44;;;;;;;3.30;1.30;;;;;;;;;;5105938;28;20664;-84
2021/06/19 08:31:12;;;;;;;1.30;1.00;;;;;;;;;;5108872;28;20192;-85
2021/06/19 08:33:40;;;;;;;1.53;1.20;;;;;;;;;;5099935;28;20465;-83
2021/06/19 08:36:08;;;;;;;2.07;1.30;;;;;;;;;;5103699;27;20224;-86
2021/06/19 08:38:35;;;;;;;1.47;1.10;;;;;;;;;;5109984;28;20196;-85
2021/06/19 08:41:02;;;;;;;1.43;1.20;;;;;;;;;;5112647;28;20856;-86
2021/06/19 08:43:30;;;;;;;1.87;1.13;;;;;;;;;;5110094;28;20468;-83
2021/06/19 08:45:57;;;;;;;3.87;1.20;;;;;;;;;;5114099;28;20802;-90
2021/06/19 08:48:24;;;;;;;2.63;1.10;;;;;;;;;;5108274;28;20956;-88
2021/06/19 08:50:54;;;;;;;2.13;1.40;;;;;;;;;;5112737;28;20446;-87
2021/06/19 08:53:22;;;;;;;1.30;1.20;;;;;;;;;;5096186;28;20465;-83
2021/06/19 08:55:49;;;;;;;1.20;1.10;;;;;;;;;;5110505;28;20461;-86
2021/06/19 08:58:16;;;;;;;2.73;1.30;;;;;;;;;;5112766;28;20442;-84
2021/06/19 09:00:43;;;;;;;1.87;1.10;;;;;;;;;;5109607;28;20457;-86
2021/06/19 09:03:25;;;;;;;2.53;1.00;;;;;;;;;;5111487;28;20922;-89
2021/06/19 09:05:54;;;;;;;1.37;1.27;;;;;;;;;;5101457;28;20560;-85
2021/06/19 09:08:22;;;;;;;2.07;1.07;;;;;;;;;;5102605;28;21657;-86
2021/06/19 09:10:49;;;;;;;2.10;1.17;;;;;;;;;;5111217;28;20445;-85
2021/06/19 09:13:18;;;;;;;3.30;1.40;;;;;;;;;;5105540;28;20458;-82
2021/06/19 09:15:46;;;;;;;1.60;0.93;;;;;;;;;;5109230;28;20482;-82
2021/06/19 09:18:14;;;;;;;1.57;1.33;;;;;;;;;;5104500;28;20491;-84
2021/06/19 09:20:48;;;;;;;1.97;1.40;;;;;;;;;;5104173;28;20537;-89
2021/06/19 09:23:17;;;;;;;2.03;1.20;;;;;;;;;;5113572;28;20477;-89
2021/06/19 09:25:44;;;;;;;2.10;1.27;;;;;;;;;;5108508;28;20462;-84
2021/06/19 09:28:12;;;;;;;4.60;1.40;;;;;;;;;;5106241;28;20456;-83
2021/06/19 09:30:39;;;;;;;1.83;1.30;;;;;;;;;;5104450;28;20450;-83
2021/06/19 09:33:08;;;;;;;1.40;1.20;;;;;;;;;;5096903;28;20446;-80
2021/06/19 09:35:36;;;;;;;1.60;1.33;;;;;;;;;;5109484;28;20465;-84
2021/06/19 09:38:04;;;;;;;2.43;1.40;;;;;;;;;;5109185;28;20484;-79
2021/06/19 09:40:34;;;;;;;1.47;1.33;;;;;;;;;;5103167;27;20876;-80
2021/06/19 09:43:09;;;;;;;2.63;1.33;;;;;;;;;;5100037;28;20551;-81
2021/06/19 09:45:37;;;;;;;1.90;1.50;;;;;;;;;;5104017;28;20505;-80
2021/06/19 09:48:05;;;;;;;1.60;1.30;;;;;;;;;;5105906;28;20455;-80
2021/06/19 09:50:32;;;;;;;1.73;1.50;;;;;;;;;;5108019;28;20431;-77
2021/06/19 09:53:13;;;;;;;1.90;1.30;;;;;;;;;;5096891;28;20947;-82
2021/06/19 09:56:01;;;;;;;1.37;1.27;;;;;;;;;;5110172;28;20507;-84
2021/06/19 09:58:37;;;;;;;2.03;1.20;;;;;;;;;;5108132;28;20489;-84
2021/06/19 10:01:04;;;;;;;1.70;1.30;;;;;;;;;;5098503;28;20454;-83
2021/06/19 10:03:31;;;;;;;3.70;1.57;;;;;;;;;;5108414;27;20798;-83
2021/06/19 10:05:59;;;;;;;2.80;1.57;;;;;;;;;;5102224;28;20461;-84
2021/06/19 10:08:26;;;;;;;3.40;1.70;;;;;;;;;;5094029;28;20455;-81
2021/06/19 10:10:55;;;;;;;1.73;1.47;;;;;;;;;;5109589;28;20445;-78
2021/06/19 10:13:22;;;;;;;1.70;1.60;;;;;;;;;;5110094;28;20441;-84
2021/06/19 10:15:49;;;;;;;2.77;1.80;;;;;;;;;;5112257;27;20486;-81
2021/06/19 10:18:17;;;;;;;2.10;1.90;;;;;;;;;;5121539;27;20600;-80
2021/06/19 10:20:44;;;;;;;1.43;1.33;;;;;;;;;;5099046;28;20450;-77
2021/06/19 10:23:11;;;;;;;1.57;1.43;;;;;;;;;;5101526;28;20458;-78
2021/06/19 10:25:45;;;;;;;1.80;1.50;;;;;;;;;;5109763;28;20545;-81
2021/06/19 10:28:17;;;;;;;2.30;1.50;;;;;;;;;;5105914;28;20531;-79
2021/06/19 10:30:44;;;;;;;3.70;1.77;;;;;;;;;;5096720;28;20460;-80
2021/06/19 10:33:26;;;;;;;1.77;1.53;;;;;;;;;;5107163;28;20477;-78
2021/06/19 10:35:54;;;;;;;2.10;1.50;;;;;;;;;;5105961;28;20970;-80
2021/06/19 10:38:21;;;;;;;1.70;1.60;;;;;;;;;;5096713;28;20501;-79
2021/06/19 10:40:52;;;;;;;1.50;1.40;;;;;;;;;;5105108;28;20458;-78
2021/06/19 10:43:22;;;;;;;3.00;1.60;;;;;;;;;;5109254;28;20499;-78
2021/06/19 10:45:49;;;;;;;2.60;2.00;;;;;;;;;;5099374;28;20475;-79
2021/06/19 10:48:17;;;;;;;5.40;1.80;;;;;;;;;;5104476;28;20469;-80
2021/06/19 10:50:45;;;;;;;2.83;1.70;;;;;;;;;;5105996;28;20438;-82
2021/06/19 10:53:13;;;;;;;1.80;1.70;;;;;;;;;;5108707;28;20441;-80
2021/06/19 10:55:55;;;;;;;1.60;1.50;;;;;;;;;;5107199;28;20478;-80
2021/06/19 10:58:26;;;;;;;2.37;1.90;;;;;;;;;;5109672;28;21053;-80
2021/06/19 11:00:53;;;;;;;3.40;2.20;;;;;;;;;;5101732;28;20469;-83
2021/06/19 11:03:35;;;;;;;2.50;1.70;;;;;;;;;;5106011;28;20433;-79
2021/06/19 11:06:03;;;;;;;3.83;2.10;;;;;;;;;;5100908;28;20458;-79
2021/06/19 11:08:50;;;;;;;2.07;1.70;;;;;;;;;;5098003;28;20438;-81
2021/06/19 11:11:17;;;;;;;3.30;2.20;;;;;;;;;;5088102;28;20447;-81
2021/06/19 11:13:47;;;;;;;2.33;1.90;;;;;;;;;;5105854;28;20529;-82
2021/06/19 11:16:29;;;;;;;2.23;1.80;;;;;;;;;;5109055;28;21155;-80
2021/06/19 11:18:56;;;;;;;1.80;1.63;;;;;;;;;;5110922;28;20494;-80
2021/06/19 11:21:28;;;;;;;2.23;1.90;;;;;;;;;;5101546;28;20464;-82
2021/06/19 11:24:10;;;;;;;2.77;1.90;;;;;;;;;;5106492;28;20470;-80
2021/06/19 11:26:53;;;;;;;2.90;1.80;;;;;;;;;;5097387;28;20446;-79
2021/06/19 11:29:35;;;;;;;2.60;1.70;;;;;;;;;;5097614;28;20451;-80
2021/06/19 11:32:18;;;;;;;1.70;1.50;;;;;;;;;;5101613;28;20472;-79
2021/06/19 11:34:47;;;;;;;1.87;1.70;;;;;;;;;;5108144;28;20573;-81
2021/06/19 11:37:14;;;;;;;2.57;1.90;;;;;;;;;;5108590;28;20822;-80
2021/06/19 11:39:41;;;;;;;1.90;1.60;;;;;;;;;;5098028;28;20851;-83
2021/06/19 11:42:09;;;;;;;2.93;1.77;;;;;;;;;;5110646;28;20446;-81
2021/06/19 11:44:40;;;;;;;3.10;2.03;;;;;;;;;;5111561;28;21025;-80
2021/06/19 11:47:08;;;;;;;2.70;1.80;;;;;;;;;;5098833;28;20465;-82
2021/06/19 11:49:40;;;;;;;1.73;1.63;;;;;;;;;;5089876;28;21020;-82
2021/06/19 11:52:09;;;;;;;1.80;1.70;;;;;;;;;;5093350;28;20465;-82
2021/06/19 11:54:43;;;;;;;2.53;2.13;;;;;;;;;;5106698;28;20465;-81
2021/06/19 11:57:11;;;;;;;1.63;1.53;;;;;;;;;;5112203;28;20572;-81
2021/06/19 11:59:38;;;;;;;2.50;2.30;;;;;;;;;;5105026;28;20462;-82
2021/06/19 12:02:12;;;;;;;2.90;2.17;;;;;;;;;;5100494;28;20438;-81
2021/06/19 12:04:39;;;;;;;1.80;1.70;;;;;;;;;;5108967;28;20434;-82
2021/06/19 12:07:06;;;;;;;2.50;2.27;;;;;;;;;;5102936;28;20453;-82
2021/06/19 12:09:36;;;;;;;2.10;2.00;;;;;;;;;;5112534;28;20430;-81
2021/06/19 12:12:06;;;;;;;1.73;1.63;;;;;;;;;;5110605;28;20479;-80
2021/06/19 12:14:34;;;;;;;2.60;1.57;;;;;;;;;;5108327;28;20565;-80
2021/06/19 12:17:02;;;;;;;2.87;2.07;;;;;;;;;;5112066;28;20481;-81
2021/06/19 12:19:31;;;;;;;2.23;2.03;;;;;;;;;;5103785;28;20489;-78
2021/06/19 12:21:59;;;;;;;1.73;1.63;;;;;;;;;;5106020;27;20477;-82
2021/06/19 12:24:28;;;;;;;2.60;1.90;;;;;;;;;;5112148;28;20442;-79
2021/06/19 12:27:01;;;;;;;2.10;1.90;;;;;;;;;;5108220;28;20515;-80
2021/06/19 12:29:32;;;;;;;1.90;1.80;;;;;;;;;;5097633;28;20829;-78
2021/06/19 12:31:59;;;;;;;2.53;2.33;;;;;;;;;;5108778;28;20478;-79
2021/06/19 12:34:28;;;;;;;2.23;1.80;;;;;;;;;;5112419;28;20441;-80
2021/06/19 12:36:56;;;;;;;2.13;1.90;;;;;;;;;;5111336;28;20557;-80
2021/06/19 12:39:23;;;;;;;2.30;1.93;;;;;;;;;;5102635;28;22454;-81
2021/06/19 12:41:50;;;;;;;3.10;2.27;;;;;;;;;;5110086;28;20461;-80
2021/06/19 12:44:19;;;;;;;3.03;2.40;;;;;;;;;;5111228;28;20430;-78
2021/06/19 12:46:46;;;;;;;2.13;1.93;;;;;;;;;;5102209;28;20473;-81
2021/06/19 12:49:13;;;;;;;2.07;1.70;;;;;;;;;;5105884;28;20449;-79
2021/06/19 12:51:40;;;;;;;2.13;1.90;;;;;;;;;;5103289;28;20442;-81
2021/06/19 12:54:23;;;;;;;2.70;1.93;;;;;;;;;;5107148;28;20457;-78
2021/06/19 12:56:51;;;;;;;2.17;1.97;;;;;;;;;;5097922;28;21069;-80
2021/06/19 12:59:20;;;;;;;3.10;2.30;;;;;;;;;;5103959;28;20486;-81
2021/06/19 13:02:00;;;;;;;2.10;1.90;;;;;;;;;;5110706;28;20798;-83
2021/06/19 13:04:29;;;;;;;3.10;1.77;;;;;;;;;;5106661;27;20466;-82
2021/06/19 13:07:03;;;;;;;2.23;1.90;;;;;;;;;;5107862;28;20470;-84
2021/06/19 13:09:46;;;;;;;2.30;2.10;;;;;;;;;;5111300;28;20487;-82
2021/06/19 13:12:13;;;;;;;2.23;2.00;;;;;;;;;;5097371;27;20555;-81
2021/06/19 13:14:43;;;;;;;1.90;1.80;;;;;;;;;;5102598;28;20462;-83
2021/06/19 13:17:18;;;;;;;3.00;1.93;;;;;;;;;;5094606;28;20508;-84
2021/06/19 13:19:47;;;;;;;3.00;2.17;;;;;;;;;;5100825;28;20756;-84
2021/06/19 13:22:27;;;;;;;3.43;2.40;;;;;;;;;;5111194;28;20961;-84
2021/06/19 13:24:59;;;;;;;2.30;2.00;;;;;;;;;;5104674;28;20582;-84
2021/06/19 13:27:26;;;;;;;2.20;2.00;;;;;;;;;;5098049;28;20813;-82
2021/06/19 13:29:58;;;;;;;2.40;2.20;;;;;;;;;;5094460;28;20439;-83
2021/06/19 13:32:26;;;;;;;3.77;2.47;;;;;;;;;;5082899;28;20462;-83
2021/06/19 13:34:56;;;;;;;2.80;2.33;;;;;;;;;;5091306;28;20431;-82
2021/06/19 13:37:23;;;;;;;3.50;2.40;;;;;;;;;;5090552;28;20462;-82
2021/06/19 13:39:51;;;;;;;2.30;2.10;;;;;;;;;;5100156;28;20943;-83
2021/06/19 13:42:21;;;;;;;2.10;1.90;;;;;;;;;;5108598;28;20434;-84
2021/06/19 13:44:51;;;;;;;5.83;1.90;;;;;;;;;;5104373;28;20454;-79
2021/06/19 13:47:20;;;;;;;2.30;2.07;;;;;;;;;;5105507;28;20457;-79
2021/06/19 13:49:47;;;;;;;2.20;2.00;;;;;;;;;;5104913;28;20450;-81
2021/06/19 13:52:15;;;;;;;2.63;1.90;;;;;;;;;;5104806;28;20468;-83
2021/06/19 13:54:43;;;;;;;1.90;1.80;;;;;;;;;;5100998;28;20450;-80
2021/06/19 13:57:11;;;;;;;2.40;2.20;;;;;;;;;;5109015;28;21003;-82
2021/06/19 13:59:39;;;;;;;2.97;2.50;;;;;;;;;;5110273;28;20474;-82
2021/06/19 14:02:07;;;;;;;3.20;2.40;;;;;;;;;;5108400;28;20453;-81
2021/06/19 14:04:35;;;;;;;2.60;1.90;;;;;;;;;;5095488;28;20454;-81
2021/06/19 14:07:03;;;;;;;2.43;2.17;;;;;;;;;;5108107;28;20476;-79
2021/06/19 14:09:30;;;;;;;3.80;2.40;;;;;;;;;;5101324;28;20582;-84
2021/06/19 14:11:57;;;;;;;2.40;2.20;;;;;;;;;;5102603;28;20473;-79
2021/06/19 14:14:24;;;;;;;2.50;2.30;;;;;;;;;;5111477;28;20934;-85
2021/06/19 14:16:52;;;;;;;2.40;2.20;;;;;;;;;;5111060;28;20464;-82
2021/06/19 14:19:19;;;;;;;2.77;2.03;;;;;;;;;;5104636;28;20523;-80
2021/06/19 14:21:47;;;;;;;2.83;2.20;;;;;;;;;;5113794;28;20843;-84
2021/06/19 14:24:15;;;;;;;4.80;2.30;;;;;;;;;;5093793;28;20435;-83
2021/06/19 14:26:42;;;;;;;2.47;2.00;;;;;;;;;;5105926;28;20467;-86
2021/06/19 14:29:10;;;;;;;2.20;2.00;;;;;;;;;;5111138;28;20445;-82
2021/06/19 14:31:37;;;;;;;2.70;2.00;;;;;;;;;;5107645;28;20469;-81
2021/06/19 14:34:05;;;;;;;2.27;1.80;;;;;;;;;;5111052;28;20470;-87
2021/06/19 14:36:33;;;;;;;3.60;2.20;;;;;;;;;;5109661;28;20454;-86
2021/06/19 14:39:01;;;;;;;1.90;1.80;;;;;;;;;;5100759;28;20484;-80
2021/06/19 14:41:28;;;;;;;2.07;1.90;;;;;;;;;;5105556;28;20965;-81
2021/06/19 14:43:56;;;;;;;1.90;1.80;;;;;;;;;;5113656;28;20517;-81
2021/06/19 14:46:24;;;;;;;2.90;2.27;;;;;;;;;;5106371;28;20482;-83
2021/06/19 14:48:51;;;;;;;2.23;1.90;;;;;;;;;;5111708;28;20489;-81
2021/06/19 14:51:18;;;;;;;3.40;2.00;;;;;;;;;;5102745;28;20458;-81